createdAt,value
2023-03-15T00:01:16.052Z,73.27
2023-03-15T00:03:46.081Z,73.75
2023-03-15T00:06:16.369Z,73.58
2023-03-15T00:08:47.397Z,73.12
2023-03-15T00:11:18.196Z,74.46
2023-03-15T00:13:46.463Z,74.47
2023-03-15T00:16:17.620Z,75.02
2023-03-15T00:18:47.136Z,75.08
2023-03-15T00:21:14.544Z,75.30
2023-03-15T00:23:41.144Z,75.18
2023-03-15T00:26:07.766Z,75.64
2023-03-15T00:28:34.405Z,75.76
2023-03-15T00:31:05.451Z,76.68
2023-03-15T00:33:35.046Z,76.82
2023-03-15T00:36:07.337Z,76.58
2023-03-15T00:38:35.127Z,76.64
2023-03-15T00:41:10.174Z,77.28
2023-03-15T00:43:37.080Z,77.17
2023-03-15T00:46:08.450Z,77.60
2023-03-15T00:48:35.498Z,77.88
2023-03-15T00:51:09.395Z,77.13
2023-03-15T00:53:39.818Z,77.56
2023-03-15T00:56:12.262Z,77.30
2023-03-15T00:58:41.579Z,77.11
2023-03-15T01:01:10.490Z,77.41
2023-03-15T01:03:37.271Z,77.04
2023-03-15T01:06:09.350Z,76.61
2023-03-15T01:08:36.162Z,77.19
2023-03-15T01:11:05.464Z,76.68
2023-03-15T01:13:34.992Z,76.64
2023-03-15T01:16:01.966Z,76.09
2023-03-15T01:18:31.103Z,76.67
2023-03-15T01:21:00.753Z,76.55
2023-03-15T01:23:27.562Z,76.45
2023-03-15T01:25:54.149Z,76.58
2023-03-15T01:28:23.010Z,77.43
2023-03-15T01:30:51.250Z,77.38
2023-03-15T01:33:17.946Z,76.84
2023-03-15T01:35:44.661Z,77.15
2023-03-15T01:38:11.572Z,77.30
2023-03-15T01:40:45.810Z,77.62
2023-03-15T01:43:21.702Z,77.17
2023-03-15T01:46:01.876Z,77.30
2023-03-15T01:48:45.082Z,77.63
2023-03-15T01:51:22.627Z,78.21
2023-03-15T01:54:00.828Z,78.24
2023-03-15T01:56:28.137Z,78.16
2023-03-15T01:58:59.556Z,78.82
2023-03-15T02:01:26.876Z,78.69
2023-03-15T02:04:01.885Z,79.38
2023-03-15T02:06:29.252Z,79.16
2023-03-15T02:09:06.340Z,79.37
2023-03-15T02:11:36.866Z,79.25
2023-03-15T02:14:05.586Z,79.48
2023-03-15T02:16:32.449Z,80.04
2023-03-15T02:19:01.567Z,79.86
2023-03-15T02:21:46.266Z,80.48
2023-03-15T02:24:23.075Z,80.61
2023-03-15T02:26:55.916Z,80.37
2023-03-15T02:29:28.944Z,80.61
2023-03-15T02:31:58.466Z,80.61
2023-03-15T02:34:25.586Z,80.97
2023-03-15T02:36:52.835Z,81.09
2023-03-15T02:39:21.496Z,81.14
2023-03-15T02:41:58.969Z,80.98
2023-03-15T02:44:32.908Z,81.33
2023-03-15T02:47:10.871Z,81.29
2023-03-15T02:49:43.981Z,81.83
2023-03-15T02:52:13.950Z,81.57
2023-03-15T02:54:43.701Z,81.40
2023-03-15T02:57:11.458Z,81.45
2023-03-15T02:59:38.227Z,82.08
2023-03-15T03:02:08.066Z,82.24
2023-03-15T03:04:34.921Z,82.01
2023-03-15T03:07:03.708Z,82.41
2023-03-15T03:09:31.037Z,82.11
2023-03-15T03:11:59.846Z,82.71
2023-03-15T03:14:26.483Z,82.54
2023-03-15T03:16:53.090Z,83.58
2023-03-15T03:19:19.743Z,83.50
2023-03-15T03:21:46.393Z,83.45
2023-03-15T03:24:16.089Z,83.75
2023-03-15T03:26:48.352Z,84.23
2023-03-15T03:29:17.651Z,84.42
2023-03-15T03:31:44.783Z,84.41
2023-03-15T03:34:14.605Z,85.00
2023-03-15T03:36:42.910Z,84.64
2023-03-15T03:39:12.559Z,84.95
2023-03-15T03:41:39.130Z,85.21
2023-03-15T03:44:05.726Z,85.09
2023-03-15T03:46:32.350Z,85.62
2023-03-15T03:48:59.008Z,85.56
2023-03-15T03:51:25.807Z,85.00
2023-03-15T03:53:54.703Z,85.65
2023-03-15T03:56:23.725Z,85.85
2023-03-15T03:58:51.110Z,85.97
2023-03-15T04:01:17.980Z,85.59
2023-03-15T04:03:44.838Z,86.01
2023-03-15T04:06:11.441Z,86.16
2023-03-15T04:08:38.091Z,85.96
2023-03-15T04:11:04.876Z,86.36
2023-03-15T04:13:31.690Z,86.58
2023-03-15T04:15:58.636Z,86.94
2023-03-15T04:18:25.509Z,86.95
2023-03-15T04:20:54.861Z,86.39
2023-03-15T04:23:24.718Z,86.43
2023-03-15T04:25:52.652Z,86.16
2023-03-15T04:28:19.847Z,86.41
2023-03-15T04:30:49.154Z,86.40
2023-03-15T04:33:16.021Z,85.92
2023-03-15T04:35:42.871Z,86.58
2023-03-15T04:38:11.893Z,86.76
2023-03-15T04:40:38.728Z,86.23
2023-03-15T04:43:05.894Z,86.34
2023-03-15T04:45:33.225Z,87.03
2023-03-15T04:48:01.655Z,87.25
2023-03-15T04:50:30.235Z,87.49
2023-03-15T04:52:59.050Z,87.58
2023-03-15T04:55:28.350Z,88.01
2023-03-15T04:57:55.428Z,87.36
2023-03-15T05:00:22.185Z,87.92
2023-03-15T05:02:54.827Z,87.28
2023-03-15T05:05:23.815Z,87.90
2023-03-15T05:07:50.782Z,87.76
2023-03-15T05:10:23.638Z,87.74
2023-03-15T05:12:50.164Z,88.00
2023-03-15T05:15:17.170Z,88.44
2023-03-15T05:17:46.631Z,88.42
2023-03-15T05:20:15.666Z,88.38
2023-03-15T05:22:43.050Z,88.26
2023-03-15T05:25:13.933Z,88.19
2023-03-15T05:27:41.697Z,88.64
2023-03-15T05:30:09.329Z,88.56
2023-03-15T05:32:39.469Z,88.60
2023-03-15T05:35:10.015Z,88.77
2023-03-15T05:37:36.774Z,88.54
2023-03-15T05:40:09.938Z,89.33
2023-03-15T05:42:38.735Z,89.10
2023-03-15T05:45:05.904Z,88.83
2023-03-15T05:47:33.713Z,89.44
2023-03-15T05:50:00.732Z,89.15
2023-03-15T05:52:27.282Z,89.34
2023-03-15T05:54:56.409Z,88.98
2023-03-15T05:57:25.970Z,88.84
2023-03-15T05:59:54.106Z,88.97
2023-03-15T06:02:21.903Z,88.43
2023-03-15T06:04:48.506Z,88.53
2023-03-15T06:07:15.066Z,88.39
2023-03-15T06:09:41.670Z,88.47
2023-03-15T06:12:10.853Z,88.39
2023-03-15T06:14:37.501Z,88.45
2023-03-15T06:17:07.291Z,88.49
2023-03-15T06:19:34.285Z,88.29
2023-03-15T06:22:01.805Z,88.20
2023-03-15T06:24:28.490Z,88.44
2023-03-15T06:26:57.522Z,87.70
2023-03-15T06:29:24.637Z,87.80
2023-03-15T06:31:51.353Z,87.40
2023-03-15T06:34:17.927Z,87.10
2023-03-15T06:36:45.449Z,87.41
2023-03-15T06:39:12.678Z,87.13
2023-03-15T06:41:41.755Z,87.18
2023-03-15T06:44:08.897Z,86.51
2023-03-15T06:46:35.526Z,86.32
2023-03-15T06:49:02.161Z,86.85
2023-03-15T06:51:29.103Z,86.32
2023-03-15T06:53:58.178Z,86.12
2023-03-15T06:56:24.782Z,85.43
2023-03-15T06:58:51.336Z,85.72
2023-03-15T07:01:20.192Z,85.59
2023-03-15T07:03:46.753Z,85.69
2023-03-15T07:06:13.323Z,85.67
2023-03-15T07:08:39.893Z,85.71
2023-03-15T07:11:07.171Z,85.04
2023-03-15T07:13:35.289Z,85.35
2023-03-15T07:16:02.061Z,85.30
2023-03-15T07:18:28.693Z,84.96
2023-03-15T07:21:01.819Z,84.71
2023-03-15T07:23:28.990Z,83.93
2023-03-15T07:25:56.267Z,83.75
2023-03-15T07:28:27.188Z,84.17
2023-03-15T07:30:53.826Z,83.99
2023-03-15T07:33:23.042Z,83.67
2023-03-15T07:35:53.943Z,83.47
2023-03-15T07:38:27.307Z,84.35
2023-03-15T07:40:54.372Z,83.79
2023-03-15T07:43:21.222Z,84.12
2023-03-15T07:45:47.965Z,84.19
2023-03-15T07:48:14.770Z,84.23
2023-03-15T07:50:41.716Z,84.57
2023-03-15T07:53:08.727Z,84.84
2023-03-15T07:55:36.177Z,84.67
2023-03-15T07:58:02.857Z,84.21
2023-03-15T08:00:32.382Z,84.33
2023-03-15T08:02:59.943Z,85.02
2023-03-15T08:05:28.902Z,85.19
2023-03-15T08:07:56.732Z,84.33
2023-03-15T08:10:26.046Z,84.65
2023-03-15T08:12:52.858Z,84.67
2023-03-15T08:15:20.037Z,84.74
2023-03-15T08:17:49.740Z,84.50
2023-03-15T08:20:20.182Z,84.48
2023-03-15T08:22:48.497Z,84.25
2023-03-15T08:25:18.155Z,84.48
2023-03-15T08:27:44.873Z,83.63
2023-03-15T08:30:13.731Z,83.68
2023-03-15T08:32:41.753Z,78.45
2023-03-15T08:35:15.148Z,67.18
2023-03-15T08:37:47.870Z,61.18
2023-03-15T08:40:16.425Z,58.37
2023-03-15T08:42:43.053Z,56.42
2023-03-15T08:45:10.618Z,55.44
2023-03-15T08:47:37.802Z,54.67
2023-03-15T08:50:14.462Z,53.78
2023-03-15T08:52:42.229Z,53.34
2023-03-15T08:55:10.323Z,53.70
2023-03-15T08:57:39.533Z,52.74
2023-03-15T09:00:08.292Z,52.79
2023-03-15T09:02:35.998Z,52.97
2023-03-15T09:05:04.231Z,52.76
2023-03-15T09:07:32.751Z,53.30
2023-03-15T09:10:04.032Z,52.90
2023-03-15T09:12:31.928Z,52.45
2023-03-15T09:14:58.430Z,53.66
2023-03-15T09:17:25.013Z,54.58
2023-03-15T09:19:52.701Z,54.47
2023-03-15T09:22:34.716Z,54.92
2023-03-15T09:25:05.126Z,55.84
2023-03-15T09:27:32.240Z,56.52
2023-03-15T09:29:58.916Z,56.32
2023-03-15T09:32:26.310Z,57.41
2023-03-15T09:34:53.805Z,57.73
2023-03-15T09:37:22.106Z,58.76
2023-03-15T09:39:48.985Z,59.18
2023-03-15T09:42:59.795Z,60.57
2023-03-15T09:46:06.134Z,60.92
2023-03-15T09:48:48.032Z,61.13
2023-03-15T09:51:35.436Z,61.11
2023-03-15T09:54:27.408Z,62.07
2023-03-15T09:57:02.186Z,62.82
2023-03-15T09:59:42.457Z,62.98
2023-03-15T10:02:24.610Z,63.28
2023-03-15T10:04:56.549Z,63.12
2023-03-15T10:07:23.254Z,63.51
2023-03-15T10:09:49.916Z,63.42
2023-03-15T10:12:26.351Z,63.62
2023-03-15T10:15:07.061Z,63.36
2023-03-15T10:17:33.548Z,63.74
2023-03-15T10:20:06.752Z,63.78
2023-03-15T10:23:08.886Z,63.68
2023-03-15T10:25:37.634Z,63.49
2023-03-15T10:28:13.237Z,63.43
2023-03-15T10:30:47.878Z,63.44
2023-03-15T10:33:31.936Z,63.16
2023-03-15T10:36:10.576Z,63.21
2023-03-15T10:38:39.327Z,63.21
2023-03-15T10:41:06.942Z,62.74
2023-03-15T10:43:37.091Z,62.39
2023-03-15T10:46:14.808Z,61.73
2023-03-15T10:49:16.930Z,61.54
2023-03-15T10:51:50.467Z,61.29
2023-03-15T10:54:25.105Z,60.90
2023-03-15T10:57:07.664Z,60.83
2023-03-15T10:59:35.653Z,61.17
2023-03-15T11:02:14.461Z,60.79
2023-03-15T11:04:42.565Z,61.51
2023-03-15T11:07:13.545Z,61.61
2023-03-15T11:09:45.784Z,61.76
2023-03-15T11:12:33.313Z,63.29
2023-03-15T11:15:10.791Z,62.88
2023-03-15T11:17:44.262Z,63.43
2023-03-15T11:20:36.597Z,63.48
2023-03-15T11:23:18.645Z,63.65
2023-03-15T11:25:45.796Z,62.99
2023-03-15T11:28:22.589Z,62.17
2023-03-15T11:30:49.732Z,62.00
2023-03-15T11:33:35.785Z,61.51
2023-03-15T11:36:07.696Z,60.52
2023-03-15T11:38:45.849Z,59.83
2023-03-15T11:41:47.625Z,59.79
2023-03-15T11:44:28.629Z,58.73
2023-03-15T11:47:04.500Z,58.71
2023-03-15T11:49:37.143Z,59.05
2023-03-15T11:52:08.975Z,58.25
2023-03-15T11:54:36.479Z,57.38
2023-03-15T11:57:06.285Z,57.61
2023-03-15T11:59:37.878Z,57.38
2023-03-15T12:02:11.146Z,56.92
2023-03-15T12:04:39.921Z,56.90
2023-03-15T12:07:25.944Z,56.02
2023-03-15T12:09:56.294Z,56.59
2023-03-15T12:12:25.997Z,57.03
2023-03-15T12:15:14.602Z,57.85
2023-03-15T12:17:54.272Z,56.55
2023-03-15T12:20:38.017Z,56.06
2023-03-15T12:23:30.966Z,55.34
2023-03-15T12:26:03.593Z,54.14
2023-03-15T12:28:38.608Z,53.95
2023-03-15T12:31:13.120Z,53.92
2023-03-15T12:33:57.981Z,52.95
2023-03-15T12:36:36.954Z,52.69
2023-03-15T12:39:15.660Z,52.68
2023-03-15T12:41:49.948Z,52.33
2023-03-15T12:44:24.910Z,52.09
2023-03-15T12:46:51.456Z,52.16
2023-03-15T12:49:23.838Z,52.00
2023-03-15T12:52:11.878Z,52.09
2023-03-15T12:54:46.819Z,51.51
2023-03-15T12:57:18.534Z,51.61
2023-03-15T12:59:51.666Z,50.92
2023-03-15T13:02:42.195Z,50.33
2023-03-15T13:05:09.620Z,48.13
2023-03-15T13:07:50.645Z,49.04
2023-03-15T13:10:41.024Z,49.73
2023-03-15T13:13:13.672Z,50.06
2023-03-15T13:15:55.272Z,50.33
2023-03-15T13:18:24.569Z,50.10
2023-03-15T13:21:12.805Z,50.60
2023-03-15T13:23:44.933Z,50.05
2023-03-15T13:26:39.640Z,50.48
2023-03-15T13:29:17.820Z,50.29
2023-03-15T13:31:48.455Z,50.32
2023-03-15T13:34:24.815Z,49.84
2023-03-15T13:36:56.851Z,49.46
2023-03-15T13:39:27.312Z,49.90
2023-03-15T13:41:59.619Z,49.81
2023-03-15T13:44:30.387Z,49.63
2023-03-15T13:46:58.385Z,49.97
2023-03-15T13:49:30.262Z,49.87
2023-03-15T13:51:58.827Z,50.00
2023-03-15T13:54:35.944Z,49.98
2023-03-15T13:57:09.078Z,49.53
2023-03-15T13:59:42.847Z,49.20
2023-03-15T14:02:35.233Z,49.71
2023-03-15T14:05:16.943Z,50.10
2023-03-15T14:07:48.485Z,49.56
2023-03-15T14:10:34.989Z,49.92
2023-03-15T14:13:20.262Z,49.99
2023-03-15T14:15:50.911Z,49.55
2023-03-15T14:18:24.664Z,49.09
2023-03-15T14:21:00.840Z,49.71
2023-03-15T14:23:29.893Z,49.61
2023-03-15T14:26:35.116Z,49.55
2023-03-15T14:29:15.693Z,48.80
2023-03-15T14:31:48.696Z,48.53
2023-03-15T14:34:33.803Z,48.85
2023-03-15T14:37:04.450Z,49.15
2023-03-15T14:39:45.019Z,49.26
2023-03-15T14:42:13.981Z,48.91
2023-03-15T14:44:42.791Z,48.95
2023-03-15T14:47:15.965Z,48.56
2023-03-15T14:49:42.706Z,48.57
2023-03-15T14:52:13.434Z,48.37
2023-03-15T14:54:49.348Z,48.35
2023-03-15T14:57:15.992Z,48.78
2023-03-15T14:59:42.560Z,48.35
2023-03-15T15:02:17.096Z,48.17
2023-03-15T15:04:44.153Z,48.19
2023-03-15T15:07:13.438Z,47.61
2023-03-15T15:09:47.362Z,48.02
2023-03-15T15:12:14.237Z,47.72
2023-03-15T15:14:42.762Z,47.54
2023-03-15T15:17:10.007Z,47.98
2023-03-15T15:19:38.945Z,47.73
2023-03-15T15:22:10.958Z,47.80
2023-03-15T15:24:37.662Z,47.70
2023-03-15T15:27:09.195Z,48.32
2023-03-15T15:29:35.914Z,48.81
2023-03-15T15:32:02.771Z,48.99
2023-03-15T15:34:29.567Z,48.70
2023-03-15T15:36:57.062Z,48.53
2023-03-15T15:39:29.426Z,48.71
2023-03-15T15:41:58.801Z,48.53
2023-03-15T15:44:27.843Z,49.14
2023-03-15T15:46:54.488Z,48.98
2023-03-15T15:49:21.217Z,48.82
2023-03-15T15:51:51.429Z,49.30
2023-03-15T15:54:22.944Z,49.34
2023-03-15T15:56:52.351Z,48.98
2023-03-15T15:59:19.683Z,49.32
2023-03-15T16:02:00.088Z,49.31
2023-03-15T16:04:28.499Z,48.73
2023-03-15T16:07:02.462Z,48.11
2023-03-15T16:09:32.157Z,48.97
2023-03-15T16:12:01.206Z,49.17
2023-03-15T16:14:27.767Z,48.63
2023-03-15T16:16:56.816Z,49.13
2023-03-15T16:19:23.534Z,49.08
2023-03-15T16:21:52.498Z,48.94
2023-03-15T16:24:30.419Z,48.85
2023-03-15T16:27:04.619Z,48.92
2023-03-15T16:29:43.266Z,49.60
2023-03-15T16:32:19.261Z,49.04
2023-03-15T16:34:54.536Z,49.71
2023-03-15T16:37:29.119Z,49.60
2023-03-15T16:39:56.115Z,49.27
2023-03-15T16:42:26.000Z,49.50
2023-03-15T16:44:53.539Z,49.73
2023-03-15T16:47:20.489Z,49.85
2023-03-15T16:49:47.048Z,49.82
2023-03-15T16:52:15.980Z,50.67
2023-03-15T16:54:47.543Z,50.59
2023-03-15T16:57:21.975Z,50.87
2023-03-15T16:59:49.189Z,51.38
2023-03-15T17:02:24.371Z,51.32
2023-03-15T17:04:54.124Z,52.13
2023-03-15T17:07:33.252Z,51.97
2023-03-15T17:10:08.502Z,52.19
2023-03-15T17:12:36.905Z,52.58
2023-03-15T17:15:07.562Z,53.22
2023-03-15T17:17:36.305Z,53.14
2023-03-15T17:20:12.928Z,53.63
2023-03-15T17:22:43.505Z,53.52
2023-03-15T17:25:10.852Z,54.40
2023-03-15T17:27:41.210Z,54.64
2023-03-15T17:30:15.159Z,54.47
2023-03-15T17:32:41.970Z,54.72
2023-03-15T17:35:09.346Z,55.28
2023-03-15T17:37:39.026Z,54.96
2023-03-15T17:40:18.299Z,55.78
2023-03-15T17:42:45.070Z,55.89
2023-03-15T17:45:20.825Z,55.70
2023-03-15T17:47:48.763Z,55.95
2023-03-15T17:50:18.303Z,55.66
2023-03-15T17:52:46.550Z,55.64
2023-03-15T17:55:21.423Z,56.19
2023-03-15T17:57:55.155Z,56.02
2023-03-15T18:00:24.436Z,56.26
2023-03-15T18:02:55.983Z,56.67
2023-03-15T18:05:30.304Z,56.56
2023-03-15T18:08:04.064Z,56.94
2023-03-15T18:10:41.731Z,56.83
2023-03-15T18:13:18.056Z,57.06
2023-03-15T18:15:46.268Z,57.38
2023-03-15T18:18:16.029Z,57.32
2023-03-15T18:20:43.007Z,57.61
2023-03-15T18:23:13.660Z,57.85
2023-03-15T18:25:43.572Z,57.79
2023-03-15T18:28:12.552Z,57.84
2023-03-15T18:30:41.906Z,58.09
2023-03-15T18:33:12.110Z,57.84
2023-03-15T18:35:38.762Z,58.24
2023-03-15T18:38:05.870Z,58.26
2023-03-15T18:40:35.826Z,58.42
2023-03-15T18:43:04.247Z,58.42
2023-03-15T18:45:36.276Z,58.77
2023-03-15T18:48:05.771Z,58.56
2023-03-15T18:50:33.810Z,58.36
2023-03-15T18:53:00.945Z,58.75
2023-03-15T18:55:27.595Z,59.02
2023-03-15T18:57:55.328Z,58.99
2023-03-15T19:00:28.476Z,59.35
2023-03-15T19:03:00.714Z,59.48
2023-03-15T19:05:29.617Z,59.49
2023-03-15T19:07:56.849Z,59.44
2023-03-15T19:10:24.687Z,59.53
2023-03-15T19:12:54.001Z,59.73
2023-03-15T19:15:22.857Z,59.85
2023-03-15T19:17:55.500Z,59.85
2023-03-15T19:20:23.615Z,60.09
2023-03-15T19:22:54.532Z,60.27
2023-03-15T19:25:21.681Z,60.52
2023-03-15T19:27:48.801Z,60.22
2023-03-15T19:30:20.903Z,60.70
2023-03-15T19:32:48.547Z,60.44
2023-03-15T19:35:16.423Z,60.93
2023-03-15T19:37:44.489Z,61.01
2023-03-15T19:40:12.569Z,61.10
2023-03-15T19:42:39.389Z,60.60
2023-03-15T19:45:07.234Z,60.85
2023-03-15T19:47:33.851Z,61.14
2023-03-15T19:50:03.248Z,61.03
2023-03-15T19:52:29.838Z,60.95
2023-03-15T19:54:56.482Z,61.00
2023-03-15T19:57:23.116Z,61.13
2023-03-15T19:59:49.709Z,60.85
2023-03-15T20:02:16.418Z,61.51
2023-03-15T20:04:43.049Z,61.35
2023-03-15T20:07:11.240Z,61.24
2023-03-15T20:09:41.467Z,61.38
2023-03-15T20:12:11.128Z,61.50
2023-03-15T20:14:37.967Z,61.76
2023-03-15T20:17:04.744Z,61.75
2023-03-15T20:19:34.058Z,62.04
2023-03-15T20:22:00.658Z,62.09
2023-03-15T20:24:27.237Z,62.05
2023-03-15T20:26:56.618Z,62.03
2023-03-15T20:29:23.276Z,61.99
2023-03-15T20:31:53.545Z,62.46
2023-03-15T20:34:22.465Z,62.44
2023-03-15T20:36:52.679Z,62.63
2023-03-15T20:39:19.381Z,62.49
2023-03-15T20:41:48.192Z,62.63
2023-03-15T20:44:14.744Z,62.72
2023-03-15T20:46:41.755Z,62.81
2023-03-15T20:49:08.394Z,63.10
2023-03-15T20:51:35.038Z,62.60
2023-03-15T20:54:01.708Z,62.89
2023-03-15T20:56:28.642Z,63.91
2023-03-15T20:58:55.644Z,63.61
2023-03-15T21:01:22.682Z,63.72
2023-03-15T21:03:49.653Z,63.93
2023-03-15T21:06:16.638Z,63.69
2023-03-15T21:08:46.312Z,63.64
2023-03-15T21:11:13.411Z,63.59
2023-03-15T21:13:40.553Z,63.71
2023-03-15T21:16:07.751Z,63.79
2023-03-15T21:18:36.193Z,63.64
2023-03-15T21:21:06.055Z,63.84
2023-03-15T21:23:34.494Z,63.74
2023-03-15T21:26:04.427Z,63.88
2023-03-15T21:28:34.989Z,64.11
2023-03-15T21:31:02.261Z,63.90
2023-03-15T21:33:31.330Z,64.15
2023-03-15T21:35:59.890Z,64.23
2023-03-15T21:38:31.648Z,64.68
2023-03-15T21:41:00.401Z,64.44
2023-03-15T21:43:31.378Z,64.55
2023-03-15T21:46:07.849Z,64.45
2023-03-15T21:48:38.379Z,64.92
2023-03-15T21:51:08.393Z,64.59
2023-03-15T21:53:36.136Z,64.29
2023-03-15T21:56:05.602Z,64.91
2023-03-15T21:58:34.557Z,65.01
2023-03-15T22:01:04.737Z,65.37
2023-03-15T22:03:35.367Z,65.26
2023-03-15T22:06:04.136Z,65.32
2023-03-15T22:08:34.369Z,65.46
2023-03-15T22:11:04.781Z,65.97
2023-03-15T22:13:31.557Z,67.41
2023-03-15T22:16:01.489Z,66.57
2023-03-15T22:18:31.930Z,66.81
2023-03-15T22:20:58.616Z,66.76
2023-03-15T22:23:25.537Z,66.73
2023-03-15T22:25:53.695Z,66.75
2023-03-15T22:28:21.950Z,67.01
2023-03-15T22:30:49.839Z,67.18
2023-03-15T22:33:17.733Z,66.76
2023-03-15T22:35:54.025Z,66.88
2023-03-15T22:38:20.651Z,67.15
2023-03-15T22:40:47.257Z,67.49
2023-03-15T22:43:14.664Z,67.52
2023-03-15T22:45:43.598Z,67.41
2023-03-15T22:48:10.350Z,67.64
2023-03-15T22:50:37.056Z,67.13
2023-03-15T22:53:03.656Z,67.48
2023-03-15T22:55:30.215Z,67.34
2023-03-15T22:57:56.824Z,67.72
2023-03-15T23:00:24.060Z,67.51
2023-03-15T23:02:50.864Z,68.10
2023-03-15T23:05:19.822Z,68.21
2023-03-15T23:07:46.649Z,68.12
2023-03-15T23:10:13.314Z,68.14
2023-03-15T23:12:44.689Z,68.39
2023-03-15T23:15:14.694Z,67.88
2023-03-15T23:17:46.138Z,68.35
2023-03-15T23:20:17.915Z,68.27
2023-03-15T23:22:45.860Z,68.14
2023-03-15T23:25:17.225Z,68.30
2023-03-15T23:27:43.829Z,68.03
2023-03-15T23:30:11.142Z,68.42
2023-03-15T23:32:37.868Z,68.58
2023-03-15T23:35:08.796Z,68.23
2023-03-15T23:37:35.819Z,68.14
2023-03-15T23:40:15.602Z,68.52
2023-03-15T23:42:44.009Z,68.42
2023-03-15T23:45:17.093Z,68.47
2023-03-15T23:47:44.120Z,68.16
2023-03-15T23:50:12.724Z,68.88
2023-03-15T23:52:39.509Z,68.68
2023-03-15T23:55:06.657Z,68.52
2023-03-15T23:57:33.234Z,68.51
2023-03-15T23:59:59.999Z,68.78
